createdAt,value
2024-05-09T00:01:29.200Z,25.75
2024-05-09T00:03:59.515Z,29.98
2024-05-09T00:06:29.606Z,28.92
2024-05-09T00:08:59.766Z,30.02
2024-05-09T00:11:30.074Z,25.65
2024-05-09T00:14:03.097Z,30.55
2024-05-09T00:16:33.531Z,26.25
2024-05-09T00:19:03.750Z,26.13
2024-05-09T00:21:33.916Z,28.88
2024-05-09T00:24:04.033Z,26.50
2024-05-09T00:26:34.233Z,31.25
2024-05-09T00:29:07.188Z,28.65
2024-05-09T00:31:37.566Z,27.73
2024-05-09T00:34:08.020Z,30.35
2024-05-09T00:36:38.252Z,24.92
2024-05-09T00:39:08.515Z,26.90
2024-05-09T00:41:38.745Z,28.95
2024-05-09T00:44:11.950Z,21.38
2024-05-09T00:46:42.269Z,28.63
2024-05-09T00:49:13.124Z,32.20
2024-05-09T00:51:44.978Z,21.85
2024-05-09T00:54:15.333Z,27.27
2024-05-09T00:56:45.751Z,16.83
2024-05-09T00:59:19.386Z,24.88
2024-05-09T01:01:50.683Z,26.88
2024-05-09T01:04:20.968Z,26.02
2024-05-09T01:06:51.336Z,24.13
2024-05-09T01:09:21.700Z,27.25
2024-05-09T01:11:51.929Z,27.35
2024-05-09T01:14:25.167Z,25.20
2024-05-09T01:16:55.466Z,22.27
2024-05-09T01:19:31.745Z,27.30
2024-05-09T01:22:02.095Z,28.20
2024-05-09T01:24:34.810Z,20.98
2024-05-09T01:27:05.018Z,28.98
2024-05-09T01:29:35.268Z,23.50
2024-05-09T01:32:05.706Z,19.80
2024-05-09T01:34:35.856Z,27.67
2024-05-09T01:37:06.191Z,29.13
2024-05-09T01:39:38.978Z,25.67
2024-05-09T01:42:09.027Z,22.25
2024-05-09T01:44:39.109Z,28.80
2024-05-09T01:47:09.175Z,23.42
2024-05-09T01:49:40.355Z,25.90
2024-05-09T01:52:10.700Z,25.90
2024-05-09T01:54:43.457Z,24.67
2024-05-09T01:57:13.708Z,27.98
2024-05-09T01:59:43.819Z,21.40
2024-05-09T02:02:14.493Z,23.08
2024-05-09T02:04:44.881Z,27.40
2024-05-09T02:07:15.052Z,23.60
2024-05-09T02:09:47.791Z,27.63
2024-05-09T02:12:18.073Z,33.15
2024-05-09T02:14:48.230Z,28.85
2024-05-09T02:17:18.530Z,24.10
2024-05-09T02:19:48.939Z,24.52
2024-05-09T02:22:19.033Z,25.05
2024-05-09T02:24:51.864Z,26.35
2024-05-09T02:27:21.962Z,26.65
2024-05-09T02:29:52.024Z,30.75
2024-05-09T02:32:22.271Z,28.40
2024-05-09T02:34:52.616Z,25.30
2024-05-09T02:37:22.716Z,31.13
2024-05-09T02:39:52.856Z,24.70
2024-05-09T02:42:22.923Z,25.50
2024-05-09T02:44:50.362Z,24.73
2024-05-09T02:47:20.570Z,28.35
2024-05-09T02:49:48.207Z,21.95
2024-05-09T02:52:21.413Z,29.48
2024-05-09T02:54:51.705Z,24.10
2024-05-09T02:57:21.822Z,25.65
2024-05-09T02:59:49.434Z,20.80
2024-05-09T03:02:19.671Z,23.45
2024-05-09T03:04:47.337Z,26.27
2024-05-09T03:07:19.713Z,36.72
2024-05-09T03:09:47.979Z,26.05
2024-05-09T03:12:21.062Z,25.05
2024-05-09T03:14:50.862Z,28.27
2024-05-09T03:17:23.575Z,28.52
2024-05-09T03:19:51.179Z,32.42
2024-05-09T03:22:21.428Z,32.25
2024-05-09T03:24:49.082Z,30.58
2024-05-09T03:27:21.857Z,25.52
2024-05-09T03:29:49.273Z,25.90
2024-05-09T03:32:19.613Z,22.20
2024-05-09T03:34:47.170Z,20.42
2024-05-09T03:37:17.499Z,19.17
2024-05-09T03:39:47.615Z,19.98
2024-05-09T03:42:17.688Z,16.55
2024-05-09T03:44:51.195Z,20.83
2024-05-09T03:47:18.778Z,18.95
2024-05-09T03:49:49.095Z,19.55
2024-05-09T03:52:19.181Z,15.73
2024-05-09T03:54:47.054Z,21.15
2024-05-09T03:57:17.112Z,21.00
2024-05-09T03:59:47.405Z,19.60
2024-05-09T04:02:17.939Z,22.27
2024-05-09T04:04:45.488Z,18.83
2024-05-09T04:07:15.578Z,20.35
2024-05-09T04:09:43.094Z,19.02
2024-05-09T04:12:13.175Z,22.63
2024-05-09T04:14:42.985Z,23.67
2024-05-09T04:17:15.762Z,24.13
2024-05-09T04:19:43.422Z,23.02
2024-05-09T04:22:13.725Z,23.80
2024-05-09T04:24:41.217Z,20.65
2024-05-09T04:27:11.327Z,19.55
2024-05-09T04:29:40.053Z,22.70
2024-05-09T04:32:11.115Z,22.33
2024-05-09T04:34:41.341Z,23.42
2024-05-09T04:37:11.440Z,22.70
2024-05-09T04:39:38.981Z,22.13
2024-05-09T04:42:09.240Z,22.45
2024-05-09T04:44:36.796Z,25.90
2024-05-09T04:47:07.498Z,26.92
2024-05-09T04:49:35.300Z,27.85
2024-05-09T04:52:08.992Z,26.40
2024-05-09T04:54:36.931Z,23.90
2024-05-09T04:57:07.446Z,31.80
2024-05-09T04:59:36.420Z,31.60
2024-05-09T05:02:07.062Z,32.58
2024-05-09T05:04:34.737Z,30.50
2024-05-09T05:07:07.956Z,31.45
2024-05-09T05:09:35.428Z,26.48
2024-05-09T05:12:25.958Z,33.67
2024-05-09T05:14:53.430Z,29.35
2024-05-09T05:17:24.240Z,27.73
2024-05-09T05:19:52.161Z,30.63
2024-05-09T05:22:24.968Z,32.83
2024-05-09T05:24:52.442Z,32.42
2024-05-09T05:27:23.003Z,35.15
2024-05-09T05:29:50.506Z,34.38
2024-05-09T05:32:20.917Z,35.10
2024-05-09T05:34:48.500Z,34.08
2024-05-09T05:37:18.898Z,29.48
2024-05-09T05:39:49.000Z,36.88
2024-05-09T05:42:19.499Z,37.65
2024-05-09T05:44:47.028Z,38.72
2024-05-09T05:47:17.129Z,37.97
2024-05-09T05:49:44.691Z,37.92
2024-05-09T05:52:15.414Z,36.67
2024-05-09T05:54:42.905Z,36.40
2024-05-09T05:57:16.430Z,42.05
2024-05-09T05:59:43.926Z,40.05
2024-05-09T06:02:14.220Z,38.05
2024-05-09T06:04:42.505Z,37.45
2024-05-09T06:07:12.785Z,41.45
2024-05-09T06:09:40.216Z,43.70
2024-05-09T06:12:10.694Z,40.55
2024-05-09T06:14:41.162Z,41.00
2024-05-09T06:17:11.783Z,39.28
2024-05-09T06:19:39.515Z,40.70
2024-05-09T06:22:09.678Z,39.88
2024-05-09T06:24:37.369Z,36.90
2024-05-09T06:27:08.648Z,36.40
2024-05-09T06:29:38.511Z,43.55
2024-05-09T06:32:11.479Z,39.40
2024-05-09T06:34:39.149Z,41.63
2024-05-09T06:37:09.309Z,39.03
2024-05-09T06:39:36.780Z,60.45
2024-05-09T06:42:07.355Z,54.90
2024-05-09T06:44:34.995Z,45.97
2024-05-09T06:47:05.302Z,34.30
2024-05-09T06:49:35.723Z,29.20
2024-05-09T06:52:06.619Z,25.90
2024-05-09T06:54:34.061Z,22.48
2024-05-09T06:57:04.274Z,20.98
2024-05-09T06:59:31.893Z,21.58
2024-05-09T07:02:02.128Z,23.85
2024-05-09T07:04:29.697Z,24.70
2024-05-09T07:07:04.399Z,21.98
2024-05-09T07:09:34.691Z,21.80
2024-05-09T07:12:02.270Z,21.52
2024-05-09T07:14:33.981Z,20.42
2024-05-09T07:17:02.412Z,18.45
2024-05-09T07:19:32.709Z,21.67
2024-05-09T07:22:03.245Z,18.77
2024-05-09T07:24:33.307Z,22.17
2024-05-09T07:27:00.783Z,19.10
2024-05-09T07:29:31.094Z,20.20
2024-05-09T07:31:58.766Z,19.58
2024-05-09T07:34:28.968Z,20.00
2024-05-09T07:36:56.632Z,20.98
2024-05-09T07:39:29.691Z,20.58
2024-05-09T07:41:57.330Z,20.95
2024-05-09T07:44:27.501Z,21.23
2024-05-09T07:48:13.949Z,19.77
2024-05-09T07:53:32.366Z,20.08
2024-05-09T07:55:20.247Z,18.25
2024-05-09T07:57:47.764Z,26.92
2024-05-09T08:00:23.804Z,24.08
2024-05-09T08:02:57.083Z,22.17
2024-05-09T08:05:27.321Z,21.10
2024-05-09T08:07:56.472Z,19.38
2024-05-09T08:10:30.220Z,22.55
2024-05-09T08:12:57.876Z,23.13
2024-05-09T08:15:28.093Z,22.38
2024-05-09T08:17:56.402Z,21.27
2024-05-09T08:20:31.176Z,21.85
2024-05-09T08:23:03.713Z,21.65
2024-05-09T08:25:36.862Z,19.88
2024-05-09T08:28:05.467Z,21.60
2024-05-09T08:30:37.593Z,18.98
2024-05-09T08:33:07.640Z,18.10
2024-05-09T08:35:38.134Z,19.17
2024-05-09T08:38:07.673Z,17.90
2024-05-09T08:40:40.508Z,18.35
2024-05-09T08:43:11.389Z,21.83
2024-05-09T08:45:44.770Z,24.77
2024-05-09T08:48:17.416Z,20.33
2024-05-09T08:50:45.946Z,18.75
2024-05-09T08:53:16.929Z,20.17
2024-05-09T08:55:49.524Z,20.83
2024-05-09T08:58:20.814Z,18.15
2024-05-09T09:00:49.444Z,19.98
2024-05-09T09:03:22.232Z,17.42
2024-05-09T09:06:02.559Z,23.42
2024-05-09T09:08:32.687Z,19.67
2024-05-09T09:11:03.232Z,19.73
2024-05-09T09:13:33.604Z,20.38
2024-05-09T09:16:03.001Z,18.85
2024-05-09T09:18:34.527Z,18.38
2024-05-09T09:21:03.116Z,18.35
2024-05-09T09:23:33.343Z,20.20
2024-05-09T09:26:03.890Z,19.25
2024-05-09T09:28:34.099Z,17.13
2024-05-09T09:31:02.122Z,19.73
2024-05-09T09:33:33.122Z,18.52
2024-05-09T09:36:03.062Z,17.55
2024-05-09T09:38:34.633Z,18.48
2024-05-09T09:41:08.019Z,18.85
2024-05-09T09:43:39.670Z,18.60
2024-05-09T09:46:12.263Z,19.50
2024-05-09T09:48:43.483Z,18.83
2024-05-09T09:51:11.767Z,18.67
2024-05-09T09:53:42.525Z,19.73
2024-05-09T09:56:13.752Z,18.35
2024-05-09T09:58:46.974Z,19.33
2024-05-09T10:01:14.596Z,19.15
2024-05-09T10:03:45.790Z,17.45
2024-05-09T10:06:14.555Z,18.33
2024-05-09T10:08:45.094Z,19.55
2024-05-09T10:11:20.766Z,17.92
2024-05-09T10:13:51.027Z,20.17
2024-05-09T10:16:22.369Z,19.08
2024-05-09T10:18:53.107Z,19.15
2024-05-09T10:21:21.220Z,19.10
2024-05-09T10:24:02.364Z,17.30
2024-05-09T10:26:36.917Z,19.75
2024-05-09T10:29:26.438Z,19.40
2024-05-09T10:31:53.960Z,21.08
2024-05-09T10:34:26.260Z,18.92
2024-05-09T10:36:55.238Z,19.58
2024-05-09T10:39:25.850Z,19.40
2024-05-09T10:41:56.447Z,20.73
2024-05-09T10:44:26.551Z,19.42
2024-05-09T10:46:55.067Z,19.52
2024-05-09T10:49:25.813Z,20.80
2024-05-09T10:51:53.766Z,21.10
2024-05-09T10:54:23.930Z,22.13
2024-05-09T10:56:59.399Z,21.13
2024-05-09T10:59:37.411Z,21.58
2024-05-09T11:02:06.582Z,20.67
2024-05-09T11:04:38.103Z,21.48
2024-05-09T11:07:11.384Z,22.95
2024-05-09T11:09:42.737Z,23.33
2024-05-09T11:12:13.238Z,21.10
2024-05-09T11:14:43.341Z,23.75
2024-05-09T11:17:10.931Z,25.00
2024-05-09T11:19:44.792Z,22.25
2024-05-09T11:22:12.415Z,21.67
2024-05-09T11:24:44.144Z,22.42
2024-05-09T11:27:14.416Z,21.15
2024-05-09T11:29:47.445Z,19.27
2024-05-09T11:32:16.628Z,20.05
2024-05-09T11:34:46.904Z,19.45
2024-05-09T11:37:14.546Z,20.88
2024-05-09T11:39:44.744Z,19.90
2024-05-09T11:42:17.613Z,20.92
2024-05-09T11:44:45.079Z,21.77
2024-05-09T11:47:15.278Z,19.27
2024-05-09T11:49:43.908Z,19.02
2024-05-09T11:52:14.381Z,18.60
2024-05-09T11:54:42.036Z,19.70
2024-05-09T11:57:12.339Z,19.85
2024-05-09T11:59:42.601Z,17.52
2024-05-09T12:02:13.006Z,18.75
2024-05-09T12:04:41.003Z,19.23
2024-05-09T12:07:12.878Z,19.63
2024-05-09T12:09:40.800Z,20.13
2024-05-09T12:12:11.086Z,19.63
2024-05-09T12:14:38.651Z,20.05
2024-05-09T12:17:11.812Z,20.30
2024-05-09T12:19:39.370Z,19.80
2024-05-09T12:22:09.909Z,19.77
2024-05-09T12:24:37.712Z,20.20
2024-05-09T12:27:08.571Z,18.67
2024-05-09T12:29:38.755Z,18.45
2024-05-09T12:32:11.984Z,21.90
2024-05-09T12:34:39.613Z,20.10
2024-05-09T12:37:10.117Z,21.10
2024-05-09T12:39:37.801Z,20.35
2024-05-09T12:42:09.774Z,19.98
2024-05-09T12:44:38.523Z,19.90
2024-05-09T12:47:11.533Z,20.25
2024-05-09T12:49:39.170Z,21.02
2024-05-09T12:52:10.235Z,21.25
2024-05-09T12:54:37.865Z,20.38
2024-05-09T12:57:08.700Z,21.13
2024-05-09T12:59:36.139Z,20.17
2024-05-09T13:02:06.712Z,19.52
2024-05-09T13:04:37.250Z,20.48
2024-05-09T13:07:08.229Z,19.95
2024-05-09T13:09:36.018Z,20.40
2024-05-09T13:12:06.576Z,18.38
2024-05-09T13:14:34.286Z,19.52
2024-05-09T13:17:05.229Z,19.10
2024-05-09T13:19:35.381Z,20.58
2024-05-09T13:22:06.041Z,18.30
2024-05-09T13:24:33.743Z,19.90
2024-05-09T13:27:04.144Z,21.75
2024-05-09T13:29:31.810Z,21.88
2024-05-09T13:32:02.147Z,20.20
2024-05-09T13:34:29.764Z,17.92
2024-05-09T13:37:02.945Z,20.02
2024-05-09T13:39:30.527Z,21.05
2024-05-09T13:42:00.807Z,16.65
2024-05-09T13:44:28.288Z,18.08
2024-05-09T13:46:58.503Z,18.48
2024-05-09T13:49:26.132Z,21.98
2024-05-09T13:51:56.438Z,20.67
2024-05-09T13:54:26.581Z,18.00
2024-05-09T13:56:56.815Z,19.33
2024-05-09T13:59:24.371Z,17.13
2024-05-09T14:01:55.786Z,20.05
2024-05-09T14:04:23.538Z,23.65
2024-05-09T14:06:53.961Z,20.95
2024-05-09T14:09:21.441Z,20.30
2024-05-09T14:11:54.256Z,17.50
2024-05-09T14:14:21.930Z,21.85
2024-05-09T14:16:52.726Z,16.20
2024-05-09T14:19:20.359Z,21.80
2024-05-09T14:21:50.548Z,28.48
2024-05-09T14:24:18.011Z,27.70
2024-05-09T14:26:48.666Z,30.35
2024-05-09T14:29:18.755Z,31.55
2024-05-09T14:31:49.045Z,30.50
2024-05-09T14:34:17.043Z,30.23
2024-05-09T14:36:47.459Z,31.83
2024-05-09T14:39:14.944Z,31.98
2024-05-09T14:41:45.031Z,30.15
2024-05-09T14:44:14.413Z,30.55
2024-05-09T14:46:47.322Z,32.67
2024-05-09T14:49:14.928Z,32.83
2024-05-09T14:51:50.987Z,30.05
2024-05-09T14:54:18.458Z,33.70
2024-05-09T14:56:48.903Z,30.15
2024-05-09T14:59:16.369Z,31.27
2024-05-09T15:01:49.288Z,32.15
2024-05-09T15:04:17.218Z,32.15
2024-05-09T15:06:48.655Z,29.92
2024-05-09T15:09:16.172Z,33.30
2024-05-09T15:11:47.549Z,32.03
2024-05-09T15:14:15.934Z,32.72
2024-05-09T15:16:48.891Z,33.85
2024-05-09T15:19:16.598Z,35.38
2024-05-09T15:21:46.845Z,33.55
2024-05-09T15:24:14.307Z,33.92
2024-05-09T15:26:44.436Z,34.72
2024-05-09T15:29:11.964Z,33.60
2024-05-09T15:31:42.148Z,35.08
2024-05-09T15:34:12.364Z,33.53
2024-05-09T15:36:43.439Z,34.50
2024-05-09T15:39:11.022Z,34.05
2024-05-09T15:41:41.131Z,34.47
2024-05-09T15:44:08.619Z,33.22
2024-05-09T15:46:39.435Z,32.30
2024-05-09T15:49:08.616Z,30.30
2024-05-09T15:51:41.635Z,32.08
2024-05-09T15:54:09.309Z,32.15
2024-05-09T15:56:39.601Z,31.70
2024-05-09T15:59:07.353Z,29.60
2024-05-09T16:01:37.571Z,29.20
2024-05-09T16:04:05.974Z,30.75
2024-05-09T16:06:36.429Z,32.47
2024-05-09T16:09:07.309Z,30.83
2024-05-09T16:11:37.495Z,30.92
2024-05-09T16:14:05.263Z,28.60
2024-05-09T16:16:35.751Z,28.92
2024-05-09T16:19:03.778Z,26.38
2024-05-09T16:21:34.028Z,31.13
2024-05-09T16:24:01.613Z,29.27
2024-05-09T16:26:34.488Z,27.35
2024-05-09T16:29:02.080Z,26.63
2024-05-09T16:31:32.430Z,29.65
2024-05-09T16:34:00.189Z,30.42
2024-05-09T16:36:30.512Z,30.00
2024-05-09T16:39:00.673Z,26.85
2024-05-09T16:41:30.781Z,30.25
2024-05-09T16:44:01.783Z,28.90
2024-05-09T16:46:29.413Z,28.55
2024-05-09T16:49:00.002Z,28.35
2024-05-09T16:51:27.507Z,26.88
2024-05-09T16:53:57.632Z,27.75
2024-05-09T16:56:26.196Z,28.05
2024-05-09T16:58:59.305Z,26.27
2024-05-09T17:01:27.033Z,25.98
2024-05-09T17:03:57.909Z,25.55
2024-05-09T17:06:26.039Z,26.45
2024-05-09T17:08:59.098Z,25.30
2024-05-09T17:11:32.123Z,24.65
2024-05-09T17:14:05.060Z,26.35
2024-05-09T17:16:35.572Z,26.63
2024-05-09T17:19:07.043Z,26.98
2024-05-09T17:21:34.587Z,25.90
2024-05-09T17:24:05.232Z,26.38
2024-05-09T17:26:32.907Z,26.48
2024-05-09T17:29:07.949Z,25.88
2024-05-09T17:31:37.544Z,25.35
2024-05-09T17:34:08.125Z,25.15
2024-05-09T17:36:35.843Z,25.10
2024-05-09T17:39:06.362Z,24.17
2024-05-09T17:41:33.941Z,24.38
2024-05-09T17:44:06.969Z,24.55
2024-05-09T17:46:34.522Z,23.98
2024-05-09T17:49:04.923Z,26.45
2024-05-09T17:51:35.959Z,27.60
2024-05-09T17:54:03.608Z,24.15
2024-05-09T17:56:33.664Z,24.70
2024-05-09T17:59:03.895Z,26.63
2024-05-09T18:01:34.129Z,24.58
2024-05-09T18:04:01.991Z,26.95
2024-05-09T18:06:32.310Z,26.67
2024-05-09T18:08:59.995Z,25.40
2024-05-09T18:11:30.095Z,25.42
2024-05-09T18:13:58.300Z,26.20
2024-05-09T18:16:31.218Z,27.23
2024-05-09T18:18:58.900Z,25.80
2024-05-09T18:21:29.093Z,27.70
2024-05-09T18:23:58.759Z,27.80
2024-05-09T18:26:30.234Z,28.30
2024-05-09T18:28:57.992Z,28.90
2024-05-09T18:31:30.813Z,27.08
2024-05-09T18:33:58.476Z,28.48
2024-05-09T18:36:29.524Z,24.67
2024-05-09T18:38:57.110Z,28.02
2024-05-09T18:41:27.185Z,28.17
2024-05-09T18:43:55.218Z,27.33
2024-05-09T18:46:25.766Z,28.20
2024-05-09T18:48:56.339Z,31.23
2024-05-09T18:51:26.534Z,31.52
2024-05-09T18:53:55.227Z,30.52
2024-05-09T18:56:25.362Z,29.10
2024-05-09T18:58:52.818Z,31.25
2024-05-09T19:01:23.173Z,31.08
2024-05-09T19:03:50.832Z,27.98
2024-05-09T19:06:24.797Z,30.67
2024-05-09T19:08:52.503Z,28.30
2024-05-09T19:11:22.719Z,28.33
2024-05-09T19:13:50.271Z,31.85
2024-05-09T19:16:20.863Z,27.38
2024-05-09T19:18:51.368Z,30.63
2024-05-09T19:21:24.342Z,26.45
2024-05-09T19:23:52.521Z,28.92
2024-05-09T19:26:22.798Z,27.00
2024-05-09T19:28:50.812Z,30.13
2024-05-09T19:31:21.021Z,27.17
2024-05-09T19:33:48.542Z,30.30
2024-05-09T19:36:19.498Z,28.52
2024-05-09T19:38:51.463Z,28.67
2024-05-09T19:41:21.669Z,27.20
2024-05-09T19:43:49.263Z,26.52
2024-05-09T19:46:19.972Z,25.83
2024-05-09T19:48:47.719Z,27.08
2024-05-09T19:51:17.907Z,25.58
2024-05-09T19:53:45.419Z,22.45
2024-05-09T19:56:18.119Z,24.42
2024-05-09T19:58:46.311Z,23.08
2024-05-09T20:01:17.764Z,22.85
2024-05-09T20:03:45.500Z,23.73
2024-05-09T20:06:15.703Z,23.38
2024-05-09T20:08:43.233Z,26.70
2024-05-09T20:11:13.646Z,23.08
2024-05-09T20:13:43.778Z,29.27
2024-05-09T20:16:14.009Z,27.98
2024-05-09T20:18:44.384Z,24.13
2024-05-09T20:21:12.058Z,24.70
2024-05-09T20:23:42.387Z,23.23
2024-05-09T20:26:09.881Z,22.35
2024-05-09T20:28:40.054Z,27.10
2024-05-09T20:31:10.445Z,24.33
2024-05-09T20:33:40.677Z,24.35
2024-05-09T20:36:08.407Z,24.20
2024-05-09T20:38:38.493Z,22.17
2024-05-09T20:41:06.056Z,21.70
2024-05-09T20:43:36.138Z,24.13
2024-05-09T20:46:04.159Z,22.70
2024-05-09T20:48:37.360Z,22.98
2024-05-09T20:51:05.672Z,25.25
2024-05-09T20:53:35.878Z,23.45
2024-05-09T20:56:03.570Z,25.67
2024-05-09T20:58:34.035Z,25.15
2024-05-09T21:01:01.774Z,25.73
2024-05-09T21:03:32.777Z,24.63
2024-05-09T21:06:03.749Z,26.60
2024-05-09T21:08:33.900Z,26.85
2024-05-09T21:11:01.664Z,26.88
2024-05-09T21:13:31.815Z,26.65
2024-05-09T21:15:59.591Z,27.02
2024-05-09T21:18:29.883Z,28.40
2024-05-09T21:20:57.471Z,28.60
2024-05-09T21:23:30.191Z,30.67
2024-05-09T21:25:57.693Z,28.08
2024-05-09T21:28:27.941Z,34.22
2024-05-09T21:30:55.966Z,29.75
2024-05-09T21:33:26.203Z,30.70
2024-05-09T21:35:55.561Z,27.27
2024-05-09T21:38:25.635Z,28.98
2024-05-09T21:40:56.417Z,28.52
2024-05-09T21:43:28.717Z,34.22
2024-05-09T21:45:56.327Z,28.90
2024-05-09T21:48:26.441Z,33.50
2024-05-09T21:50:53.935Z,34.70
2024-05-09T21:53:24.024Z,35.70
2024-05-09T21:55:51.573Z,34.42
2024-05-09T21:58:24.430Z,37.85
2024-05-09T22:00:52.135Z,37.03
2024-05-09T22:03:22.479Z,38.72
2024-05-09T22:05:50.046Z,34.70
2024-05-09T22:08:20.522Z,33.78
2024-05-09T22:10:48.003Z,33.75
2024-05-09T22:13:20.390Z,37.92
2024-05-09T22:15:50.754Z,38.45
2024-05-09T22:18:20.958Z,35.00
2024-05-09T22:20:48.541Z,40.45
2024-05-09T22:23:18.642Z,36.88
2024-05-09T22:25:46.176Z,39.08
2024-05-09T22:28:17.932Z,40.55
2024-05-09T22:30:47.353Z,43.00
2024-05-09T22:33:20.729Z,45.55
2024-05-09T22:35:48.299Z,41.15
2024-05-09T22:38:18.376Z,42.55
2024-05-09T22:40:48.995Z,38.83
2024-05-09T22:43:25.180Z,43.03
2024-05-09T22:45:54.740Z,46.47
2024-05-09T22:48:28.253Z,43.50
2024-05-09T22:50:56.012Z,47.20
2024-05-09T22:53:27.560Z,47.03
2024-05-09T22:55:55.018Z,47.13
2024-05-09T22:58:26.165Z,40.67
2024-05-09T23:00:53.965Z,51.55
2024-05-09T23:03:24.420Z,47.13
2024-05-09T23:05:54.770Z,46.97
2024-05-09T23:08:24.875Z,42.28
2024-05-09T23:10:52.494Z,38.40
2024-05-09T23:13:22.748Z,46.97
2024-05-09T23:15:50.476Z,40.17
2024-05-09T23:18:20.825Z,46.08
2024-05-09T23:20:48.624Z,48.97
2024-05-09T23:23:21.402Z,42.10
2024-05-09T23:25:50.071Z,43.28
2024-05-09T23:28:20.201Z,44.67
2024-05-09T23:30:50.404Z,42.45
2024-05-09T23:33:18.159Z,48.42
2024-05-09T23:35:48.346Z,42.33
2024-05-09T23:38:20.986Z,42.88
2024-05-09T23:40:52.813Z,42.30
2024-05-09T23:43:20.398Z,47.10
2024-05-09T23:45:50.679Z,50.88
2024-05-09T23:48:18.351Z,45.67
2024-05-09T23:50:48.940Z,46.00
2024-05-09T23:53:19.044Z,48.78
2024-05-09T23:55:49.494Z,43.85
2024-05-09T23:58:17.017Z,47.13
